createdAt,value
2018-08-11T00:01:53.641Z,99.90
2018-08-11T00:04:23.967Z,99.90
2018-08-11T00:06:54.366Z,99.90
2018-08-11T00:09:24.918Z,99.90
2018-08-11T00:11:55.219Z,99.90
2018-08-11T00:14:25.746Z,99.90
2018-08-11T00:16:56.270Z,99.90
2018-08-11T00:19:26.574Z,99.90
2018-08-11T00:21:57.095Z,99.90
2018-08-11T00:24:27.632Z,99.90
2018-08-11T00:26:58.280Z,99.90
2018-08-11T00:29:28.734Z,99.90
2018-08-11T00:31:58.933Z,99.90
2018-08-11T00:34:29.595Z,99.90
2018-08-11T00:37:00.174Z,99.90
2018-08-11T00:39:30.609Z,99.90
2018-08-11T00:42:01.090Z,99.90
2018-08-11T00:44:31.606Z,99.90
2018-08-11T00:47:01.878Z,99.90
2018-08-11T00:49:32.434Z,99.90
2018-08-11T00:52:02.947Z,99.90
2018-08-11T00:54:33.444Z,99.90
2018-08-11T00:57:03.865Z,99.90
2018-08-11T00:59:34.694Z,99.90
2018-08-11T01:02:05.198Z,99.90
2018-08-11T01:04:35.718Z,99.90
2018-08-11T01:07:06.343Z,99.90
2018-08-11T01:09:36.695Z,99.90
2018-08-11T01:12:07.044Z,99.90
2018-08-11T01:14:37.441Z,99.90
2018-08-11T01:17:07.931Z,99.90
2018-08-11T01:19:38.350Z,99.90
2018-08-11T01:22:09.213Z,99.90
2018-08-11T01:24:39.656Z,99.90
2018-08-11T01:27:10.222Z,99.90
2018-08-11T01:29:40.660Z,99.90
2018-08-11T01:32:11.298Z,99.90
2018-08-11T01:34:41.706Z,99.90
2018-08-11T01:37:12.406Z,99.90
2018-08-11T01:39:42.986Z,99.90
2018-08-11T01:42:13.490Z,99.90
2018-08-11T01:44:44.059Z,99.90
2018-08-11T01:47:14.416Z,99.90
2018-08-11T01:49:45.136Z,99.90
2018-08-11T01:52:15.451Z,99.90
2018-08-11T01:54:45.790Z,99.90
2018-08-11T01:57:16.317Z,99.90
2018-08-11T01:59:46.794Z,99.90
2018-08-11T02:02:17.251Z,99.90
2018-08-11T02:04:47.851Z,99.90
2018-08-11T02:07:18.257Z,99.90
2018-08-11T02:09:48.771Z,99.90
2018-08-11T02:12:19.093Z,99.90
2018-08-11T02:14:49.561Z,99.90
2018-08-11T02:17:19.987Z,99.90
2018-08-11T02:19:50.502Z,99.90
2018-08-11T02:22:20.788Z,99.90
2018-08-11T02:24:51.188Z,99.90
2018-08-11T02:27:21.558Z,99.90
2018-08-11T02:29:51.976Z,99.90
2018-08-11T02:32:22.422Z,99.90
2018-08-11T02:34:52.842Z,99.90
2018-08-11T02:37:23.147Z,99.90
2018-08-11T02:39:53.739Z,99.90
2018-08-11T02:42:24.156Z,99.90
2018-08-11T02:44:54.652Z,99.90
2018-08-11T02:47:25.038Z,99.90
2018-08-11T02:49:55.361Z,99.90
2018-08-11T02:52:25.646Z,99.90
2018-08-11T02:54:56.090Z,99.90
2018-08-11T02:57:26.393Z,99.90
2018-08-11T02:59:56.764Z,99.90
2018-08-11T03:02:27.148Z,99.90
2018-08-11T03:04:57.671Z,99.90
2018-08-11T03:07:28.032Z,99.90
2018-08-11T03:09:58.531Z,99.90
2018-08-11T03:12:29.114Z,99.90
2018-08-11T03:14:59.465Z,99.90
2018-08-11T03:17:29.891Z,99.90
2018-08-11T03:20:00.294Z,99.90
2018-08-11T03:22:30.596Z,99.90
2018-08-11T03:25:01.250Z,99.90
2018-08-11T03:27:31.625Z,99.90
2018-08-11T03:30:01.948Z,99.90
2018-08-11T03:32:32.666Z,99.90
2018-08-11T03:35:03.265Z,99.90
2018-08-11T03:37:33.987Z,99.90
2018-08-11T03:40:05.087Z,99.90
2018-08-11T03:42:35.698Z,99.90
2018-08-11T03:45:06.304Z,99.90
2018-08-11T03:47:36.732Z,99.90
2018-08-11T03:50:07.673Z,99.90
2018-08-11T03:52:38.485Z,99.90
2018-08-11T03:55:09.011Z,99.90
2018-08-11T03:57:39.515Z,99.90
2018-08-11T04:00:12.000Z,99.90
2018-08-11T04:02:42.341Z,99.90
2018-08-11T04:05:12.807Z,99.90
2018-08-11T04:07:43.440Z,99.90
2018-08-11T04:10:13.870Z,99.90
2018-08-11T04:12:44.269Z,99.90
2018-08-11T04:15:14.526Z,99.90
2018-08-11T04:17:44.973Z,99.90
2018-08-11T04:20:15.190Z,99.90
2018-08-11T04:22:45.538Z,99.90
2018-08-11T04:25:15.901Z,99.90
2018-08-11T04:27:46.355Z,99.90
2018-08-11T04:30:16.699Z,99.90
2018-08-11T04:32:46.949Z,99.90
2018-08-11T04:35:17.478Z,99.90
2018-08-11T04:37:47.762Z,99.90
2018-08-11T04:40:18.202Z,99.90
2018-08-11T04:42:48.557Z,99.90
2018-08-11T04:45:19.165Z,99.90
2018-08-11T04:47:49.540Z,99.90
2018-08-11T04:50:19.878Z,99.90
2018-08-11T04:52:50.289Z,99.90
2018-08-11T04:55:20.710Z,99.90
2018-08-11T04:57:51.238Z,99.90
2018-08-11T05:00:21.635Z,99.90
2018-08-11T05:02:51.874Z,99.90
2018-08-11T05:05:22.643Z,99.90
2018-08-11T05:07:53.032Z,99.90
2018-08-11T05:10:23.428Z,99.90
2018-08-11T05:12:53.735Z,99.90
2018-08-11T05:15:24.039Z,99.90
2018-08-11T05:17:54.121Z,99.90
2018-08-11T05:20:24.518Z,99.90
2018-08-11T05:22:54.932Z,99.90
2018-08-11T05:25:25.431Z,99.90
2018-08-11T05:27:55.765Z,99.90
2018-08-11T05:30:26.219Z,99.90
2018-08-11T05:32:56.619Z,99.90
2018-08-11T05:35:27.107Z,99.90
2018-08-11T05:37:57.756Z,99.90
2018-08-11T05:40:28.054Z,99.90
2018-08-11T05:42:58.391Z,99.90
2018-08-11T05:45:28.826Z,99.90
2018-08-11T05:47:59.520Z,99.90
2018-08-11T05:50:30.094Z,99.90
2018-08-11T05:53:00.613Z,99.90
2018-08-11T05:55:31.160Z,99.90
2018-08-11T05:58:01.691Z,99.90
2018-08-11T06:00:32.188Z,99.90
2018-08-11T06:03:02.644Z,99.90
2018-08-11T06:05:33.170Z,99.90
2018-08-11T06:08:03.693Z,99.90
2018-08-11T06:10:34.103Z,99.90
2018-08-11T06:13:04.544Z,99.90
2018-08-11T06:15:35.041Z,99.90
2018-08-11T06:18:05.427Z,99.90
2018-08-11T06:20:35.879Z,99.90
2018-08-11T06:23:06.707Z,97.00
2018-08-11T06:25:37.201Z,92.00
2018-08-11T06:28:07.615Z,83.00
2018-08-11T06:30:37.954Z,79.70
2018-08-11T06:33:08.586Z,73.60
2018-08-11T06:35:38.918Z,71.30
2018-08-11T06:38:09.365Z,69.40
2018-08-11T06:40:40.424Z,63.80
2018-08-11T06:43:10.865Z,63.40
2018-08-11T06:45:41.799Z,65.60
2018-08-11T06:48:12.425Z,61.20
2018-08-11T06:50:42.724Z,59.90
2018-08-11T06:53:13.342Z,58.10
2018-08-11T06:55:43.762Z,55.90
2018-08-11T06:58:14.332Z,57.60
2018-08-11T07:00:44.642Z,58.90
2018-08-11T07:03:15.145Z,59.50
2018-08-11T07:05:45.688Z,59.80
2018-08-11T07:08:16.130Z,60.80
2018-08-11T07:10:46.505Z,58.30
2018-08-11T07:13:16.884Z,56.70
2018-08-11T07:15:47.275Z,56.00
2018-08-11T07:18:17.512Z,54.40
2018-08-11T07:20:47.945Z,55.90
2018-08-11T07:23:18.392Z,57.40
2018-08-11T07:25:48.768Z,56.90
2018-08-11T07:28:19.225Z,54.80
2018-08-11T07:30:49.636Z,57.90
2018-08-11T07:33:20.124Z,56.20
2018-08-11T07:35:50.478Z,53.80
2018-08-11T07:38:20.920Z,51.90
2018-08-11T07:40:51.500Z,51.00
2018-08-11T07:43:21.916Z,51.00
2018-08-11T07:45:52.571Z,52.60
2018-08-11T07:48:22.980Z,53.20
2018-08-11T07:50:53.423Z,51.70
2018-08-11T07:53:24.083Z,49.90
2018-08-11T07:55:54.554Z,52.20
2018-08-11T07:58:24.849Z,52.40
2018-08-11T08:00:55.249Z,51.60
2018-08-11T08:03:25.637Z,43.70
2018-08-11T08:05:56.044Z,45.50
2018-08-11T08:08:26.293Z,47.20
2018-08-11T08:10:56.763Z,48.10
2018-08-11T08:13:27.221Z,49.70
2018-08-11T08:15:57.517Z,48.60
2018-08-11T08:18:28.011Z,46.40
2018-08-11T08:20:58.416Z,44.10
2018-08-11T08:23:28.794Z,42.90
2018-08-11T08:25:59.185Z,43.50
2018-08-11T08:28:29.547Z,42.80
2018-08-11T08:30:59.998Z,43.20
2018-08-11T08:33:30.550Z,44.30
2018-08-11T08:36:01.371Z,44.50
2018-08-11T08:38:31.788Z,45.70
2018-08-11T08:41:02.190Z,45.60
2018-08-11T08:43:32.753Z,45.30
2018-08-11T08:46:03.135Z,44.50
2018-08-11T08:48:33.574Z,44.10
2018-08-11T08:51:06.354Z,44.60
2018-08-11T08:53:37.165Z,44.40
2018-08-11T08:56:07.452Z,45.90
2018-08-11T08:58:37.798Z,44.50
2018-08-11T09:01:08.299Z,43.90
2018-08-11T09:03:38.762Z,43.40
2018-08-11T09:06:09.122Z,42.00
2018-08-11T09:08:39.377Z,42.80
2018-08-11T09:11:09.742Z,45.40
2018-08-11T09:13:40.268Z,46.70
2018-08-11T09:16:10.769Z,46.50
2018-08-11T09:18:41.114Z,46.20
2018-08-11T09:21:12.058Z,45.10
2018-08-11T09:23:42.462Z,42.80
2018-08-11T09:26:12.907Z,42.30
2018-08-11T09:28:43.290Z,43.20
2018-08-11T09:31:13.683Z,42.40
2018-08-11T09:33:44.326Z,44.20
2018-08-11T09:36:14.783Z,43.30
2018-08-11T09:38:45.141Z,43.00
2018-08-11T09:41:15.531Z,41.40
2018-08-11T09:43:46.357Z,42.20
2018-08-11T09:46:16.652Z,43.10
2018-08-11T09:48:46.977Z,43.00
2018-08-11T09:51:17.670Z,42.80
2018-08-11T09:53:48.058Z,43.60
2018-08-11T09:56:18.628Z,43.00
2018-08-11T09:58:49.045Z,43.30
2018-08-11T10:01:24.180Z,42.80
2018-08-11T10:03:54.649Z,40.50
2018-08-11T10:06:25.082Z,40.50
2018-08-11T10:08:55.487Z,39.50
2018-08-11T10:11:26.100Z,41.60
2018-08-11T10:13:56.466Z,39.50
2018-08-11T10:16:26.931Z,39.90
2018-08-11T10:18:57.326Z,39.20
2018-08-11T10:21:27.741Z,36.80
2018-08-11T10:23:58.208Z,35.60
2018-08-11T10:26:28.809Z,37.90
2018-08-11T10:28:59.206Z,36.00
2018-08-11T10:31:29.746Z,34.10
2018-08-11T10:34:00.103Z,33.70
2018-08-11T10:36:30.417Z,35.80
2018-08-11T10:39:01.028Z,37.00
2018-08-11T10:41:31.458Z,36.30
2018-08-11T10:44:01.754Z,36.20
2018-08-11T10:46:32.330Z,35.30
2018-08-11T10:49:02.666Z,34.10
2018-08-11T10:51:32.909Z,36.20
2018-08-11T10:54:03.342Z,36.00
2018-08-11T10:56:33.993Z,35.90
2018-08-11T10:59:04.463Z,38.30
2018-08-11T11:01:34.927Z,38.10
2018-08-11T11:04:05.394Z,37.20
2018-08-11T11:06:35.953Z,35.90
2018-08-11T11:09:08.970Z,36.40
2018-08-11T11:11:39.579Z,36.70
2018-08-11T11:14:10.153Z,38.20
2018-08-11T11:16:40.498Z,36.40
2018-08-11T11:19:10.840Z,37.00
2018-08-11T11:21:41.287Z,37.70
2018-08-11T11:24:12.111Z,37.00
2018-08-11T11:26:42.581Z,37.20
2018-08-11T11:29:13.083Z,35.30
2018-08-11T11:31:44.051Z,35.20
2018-08-11T11:34:15.011Z,35.40
2018-08-11T11:36:45.366Z,36.00
2018-08-11T11:39:15.930Z,34.80
2018-08-11T11:41:46.335Z,34.50
2018-08-11T11:44:16.809Z,37.20
2018-08-11T11:46:47.141Z,35.90
2018-08-11T11:49:17.480Z,35.20
2018-08-11T11:51:47.914Z,34.40
2018-08-11T11:54:18.402Z,32.90
2018-08-11T11:56:48.803Z,32.00
2018-08-11T11:59:19.296Z,32.50
2018-08-11T12:01:49.670Z,34.90
2018-08-11T12:04:20.267Z,34.60
2018-08-11T12:06:50.539Z,32.80
2018-08-11T12:09:21.052Z,32.10
2018-08-11T12:11:51.650Z,33.40
2018-08-11T12:14:22.201Z,31.20
2018-08-11T12:16:52.534Z,29.20
2018-08-11T12:19:22.887Z,27.50
2018-08-11T12:21:53.434Z,29.30
2018-08-11T12:24:24.034Z,29.50
2018-08-11T12:26:54.456Z,29.00
2018-08-11T12:29:25.013Z,28.20
2018-08-11T12:31:55.518Z,28.00
2018-08-11T12:34:25.782Z,28.40
2018-08-11T12:36:56.275Z,27.60
2018-08-11T12:39:26.690Z,28.60
2018-08-11T12:41:57.258Z,29.20
2018-08-11T12:44:27.801Z,29.50
2018-08-11T12:46:58.041Z,29.60
2018-08-11T12:49:28.575Z,30.30
2018-08-11T12:51:59.144Z,29.30
2018-08-11T12:54:29.428Z,28.20
2018-08-11T12:56:59.878Z,28.50
2018-08-11T12:59:30.214Z,29.60
2018-08-11T13:02:00.526Z,27.00
2018-08-11T13:04:30.885Z,25.40
2018-08-11T13:07:01.336Z,25.20
2018-08-11T13:09:31.805Z,24.30
2018-08-11T13:12:02.267Z,23.40
2018-08-11T13:14:32.603Z,23.20
2018-08-11T13:17:03.211Z,23.40
2018-08-11T13:19:33.466Z,24.30
2018-08-11T13:22:03.818Z,24.60
2018-08-11T13:24:34.216Z,23.60
2018-08-11T13:27:04.403Z,23.60
2018-08-11T13:29:34.846Z,22.80
2018-08-11T13:32:05.372Z,22.80
2018-08-11T13:34:35.904Z,23.00
2018-08-11T13:37:06.522Z,22.80
2018-08-11T13:39:36.930Z,21.10
2018-08-11T13:42:07.491Z,24.20
2018-08-11T13:44:37.942Z,26.90
2018-08-11T13:47:08.464Z,27.60
2018-08-11T13:49:38.915Z,26.30
2018-08-11T13:52:11.558Z,26.40
2018-08-11T13:54:41.965Z,26.60
2018-08-11T13:57:12.495Z,26.50
2018-08-11T13:59:43.125Z,24.70
2018-08-11T14:02:13.968Z,23.90
2018-08-11T14:04:44.427Z,23.80
2018-08-11T14:07:14.888Z,22.70
2018-08-11T14:09:45.214Z,22.00
2018-08-11T14:12:15.843Z,21.30
2018-08-11T14:14:46.339Z,21.20
2018-08-11T14:17:16.827Z,21.30
2018-08-11T14:19:47.274Z,21.80
2018-08-11T14:22:17.605Z,22.80
2018-08-11T14:24:47.882Z,22.60
2018-08-11T14:27:18.364Z,22.50
2018-08-11T14:29:48.741Z,22.30
2018-08-11T14:32:19.110Z,22.30
2018-08-11T14:34:49.355Z,23.20
2018-08-11T14:37:19.670Z,22.50
2018-08-11T14:39:50.281Z,22.00
2018-08-11T14:42:20.635Z,22.60
2018-08-11T14:44:50.978Z,22.00
2018-08-11T14:47:21.395Z,21.50
2018-08-11T14:49:52.714Z,21.90
2018-08-11T14:52:23.011Z,21.50
2018-08-11T14:54:53.235Z,22.00
2018-08-11T14:57:23.702Z,22.90
2018-08-11T14:59:54.063Z,22.90
2018-08-11T15:02:24.554Z,23.00
2018-08-11T15:04:55.117Z,22.90
2018-08-11T15:07:25.558Z,23.20
2018-08-11T15:09:55.958Z,22.20
2018-08-11T15:12:26.471Z,22.90
2018-08-11T15:14:56.936Z,22.00
2018-08-11T15:17:27.190Z,22.40
2018-08-11T15:19:57.586Z,23.40
2018-08-11T15:22:27.891Z,24.60
2018-08-11T15:24:58.205Z,24.10
2018-08-11T15:27:28.551Z,24.80
2018-08-11T15:29:59.053Z,26.30
2018-08-11T15:32:29.418Z,25.60
2018-08-11T15:34:59.894Z,25.60
2018-08-11T15:37:30.269Z,25.70
2018-08-11T15:40:00.702Z,25.30
2018-08-11T15:42:30.999Z,26.00
2018-08-11T15:45:01.279Z,24.30
2018-08-11T15:47:31.723Z,24.80
2018-08-11T15:50:01.977Z,25.30
2018-08-11T15:52:32.450Z,23.80
2018-08-11T15:55:02.842Z,23.40
2018-08-11T15:57:33.308Z,23.60
2018-08-11T16:00:03.903Z,22.00
2018-08-11T16:02:34.180Z,21.40
2018-08-11T16:05:04.653Z,21.50
2018-08-11T16:07:35.237Z,21.80
2018-08-11T16:10:06.343Z,21.20
2018-08-11T16:12:36.773Z,21.30
2018-08-11T16:15:07.191Z,21.60
2018-08-11T16:17:37.591Z,21.40
2018-08-11T16:20:07.913Z,21.10
2018-08-11T16:22:38.366Z,21.60
2018-08-11T16:25:08.738Z,24.40
2018-08-11T16:27:39.125Z,25.90
2018-08-11T16:30:12.949Z,26.70
2018-08-11T16:32:43.366Z,25.70
2018-08-11T16:35:13.948Z,25.80
2018-08-11T16:37:44.455Z,26.00
2018-08-11T16:40:14.824Z,25.00
2018-08-11T16:42:45.164Z,26.20
2018-08-11T16:45:15.432Z,26.00
2018-08-11T16:47:45.717Z,26.20
2018-08-11T16:50:16.107Z,26.60
2018-08-11T16:52:46.500Z,27.20
2018-08-11T16:55:16.774Z,27.70
2018-08-11T16:57:47.300Z,28.90
2018-08-11T17:00:17.762Z,28.90
2018-08-11T17:02:48.103Z,30.00
2018-08-11T17:05:18.485Z,30.70
2018-08-11T17:07:49.122Z,31.10
2018-08-11T17:10:19.435Z,30.40
2018-08-11T17:12:49.797Z,31.40
2018-08-11T17:15:20.355Z,31.80
2018-08-11T17:17:50.849Z,32.30
2018-08-11T17:20:21.359Z,33.30
2018-08-11T17:22:51.724Z,34.90
2018-08-11T17:25:22.161Z,36.90
2018-08-11T17:27:52.371Z,38.90
2018-08-11T17:30:22.765Z,39.60
2018-08-11T17:32:53.233Z,41.40
2018-08-11T17:35:23.591Z,42.70
2018-08-11T17:37:54.041Z,43.90
2018-08-11T17:40:24.674Z,44.00
2018-08-11T17:42:55.098Z,44.50
2018-08-11T17:45:25.466Z,44.90
2018-08-11T17:47:56.054Z,45.40
2018-08-11T17:50:26.340Z,46.60
2018-08-11T17:52:56.754Z,47.00
2018-08-11T17:55:27.283Z,47.90
2018-08-11T17:57:57.546Z,48.30
2018-08-11T18:00:27.928Z,47.80
2018-08-11T18:02:58.279Z,47.60
2018-08-11T18:05:28.706Z,48.20
2018-08-11T18:07:59.258Z,48.40
2018-08-11T18:10:29.657Z,48.90
2018-08-11T18:13:00.288Z,49.30
2018-08-11T18:15:30.794Z,50.00
2018-08-11T18:18:01.267Z,50.20
2018-08-11T18:20:31.661Z,49.90
2018-08-11T18:23:02.111Z,50.30
2018-08-11T18:25:32.522Z,50.10
2018-08-11T18:28:02.931Z,50.30
2018-08-11T18:30:33.426Z,51.10
2018-08-11T18:33:03.915Z,51.00
2018-08-11T18:35:34.432Z,51.30
2018-08-11T18:38:04.839Z,51.40
2018-08-11T18:40:35.191Z,52.50
2018-08-11T18:43:05.507Z,51.90
2018-08-11T18:45:35.881Z,52.40
2018-08-11T18:48:06.623Z,53.00
2018-08-11T18:50:36.892Z,52.80
2018-08-11T18:53:07.570Z,54.40
2018-08-11T18:55:38.017Z,54.90
2018-08-11T18:58:08.731Z,56.70
2018-08-11T19:00:39.235Z,57.70
2018-08-11T19:03:10.030Z,59.70
2018-08-11T19:05:40.466Z,59.70
2018-08-11T19:08:11.306Z,60.70
2018-08-11T19:10:41.719Z,60.50
2018-08-11T19:13:12.785Z,61.10
2018-08-11T19:15:43.478Z,61.90
2018-08-11T19:18:13.827Z,64.10
2018-08-11T19:20:44.482Z,64.80
2018-08-11T19:23:14.855Z,66.50
2018-08-11T19:25:45.458Z,68.60
2018-08-11T19:28:16.214Z,71.30
2018-08-11T19:30:46.487Z,73.70
2018-08-11T19:33:17.040Z,77.10
2018-08-11T19:35:47.474Z,81.40
2018-08-11T19:38:17.822Z,83.70
2018-08-11T19:40:48.230Z,88.50
2018-08-11T19:43:18.605Z,90.00
2018-08-11T19:45:48.964Z,91.50
2018-08-11T19:48:19.294Z,95.30
2018-08-11T19:50:49.730Z,97.00
2018-08-11T19:53:20.510Z,98.20
2018-08-11T19:55:50.871Z,99.90
2018-08-11T19:58:21.336Z,99.90
2018-08-11T20:00:51.658Z,99.90
2018-08-11T20:03:22.183Z,99.90
2018-08-11T20:05:52.538Z,99.90
2018-08-11T20:08:23.146Z,99.90
2018-08-11T20:10:53.464Z,99.90
2018-08-11T20:13:23.907Z,99.90
2018-08-11T20:15:54.371Z,99.90
2018-08-11T20:18:24.645Z,99.90
2018-08-11T20:20:55.150Z,99.90
2018-08-11T20:23:25.551Z,99.90
2018-08-11T20:25:55.848Z,99.90
2018-08-11T20:28:26.246Z,99.90
2018-08-11T20:30:56.868Z,99.90
2018-08-11T20:33:27.273Z,99.90
2018-08-11T20:35:57.843Z,99.90
2018-08-11T20:38:28.187Z,99.90
2018-08-11T20:40:58.932Z,99.90
2018-08-11T20:43:29.383Z,99.90
2018-08-11T20:45:59.991Z,99.90
2018-08-11T20:48:30.482Z,99.90
2018-08-11T20:51:00.768Z,99.90
2018-08-11T20:53:31.102Z,99.90
2018-08-11T20:56:01.679Z,99.90
2018-08-11T20:58:32.110Z,99.90
2018-08-11T21:01:02.648Z,99.90
2018-08-11T21:03:33.383Z,99.90
2018-08-11T21:06:03.751Z,99.90
2018-08-11T21:08:34.575Z,99.90
2018-08-11T21:11:04.909Z,99.90
2018-08-11T21:13:35.140Z,99.90
2018-08-11T21:16:05.674Z,99.90
2018-08-11T21:18:36.040Z,99.90
2018-08-11T21:21:06.502Z,99.90
2018-08-11T21:23:37.236Z,99.90
2018-08-11T21:26:07.711Z,99.90
2018-08-11T21:28:38.223Z,99.90
2018-08-11T21:31:08.887Z,99.90
2018-08-11T21:33:39.586Z,99.90
2018-08-11T21:36:09.899Z,99.90
2018-08-11T21:38:40.234Z,99.90
2018-08-11T21:41:10.767Z,99.90
2018-08-11T21:43:41.459Z,99.90
2018-08-11T21:46:11.958Z,99.90
2018-08-11T21:48:42.442Z,99.90
2018-08-11T21:51:12.976Z,99.90
2018-08-11T21:53:43.303Z,99.90
2018-08-11T21:56:13.691Z,99.90
2018-08-11T21:58:44.384Z,99.90
2018-08-11T22:01:16.826Z,99.90
2018-08-11T22:03:47.322Z,99.90
2018-08-11T22:06:18.022Z,99.90
2018-08-11T22:08:48.463Z,99.90
2018-08-11T22:11:18.897Z,99.90
2018-08-11T22:13:49.412Z,99.90
2018-08-11T22:16:19.884Z,99.90
2018-08-11T22:18:50.251Z,99.90
2018-08-11T22:21:20.570Z,99.90
2018-08-11T22:23:51.039Z,99.90
2018-08-11T22:26:21.462Z,99.90
2018-08-11T22:28:51.985Z,99.90
2018-08-11T22:31:22.570Z,99.90
2018-08-11T22:33:52.941Z,99.90
2018-08-11T22:36:23.326Z,99.90
2018-08-11T22:38:53.802Z,99.90
2018-08-11T22:41:24.091Z,99.90
2018-08-11T22:43:54.623Z,99.90
2018-08-11T22:46:25.030Z,99.90
2018-08-11T22:48:55.611Z,99.90
2018-08-11T22:51:26.213Z,99.90
2018-08-11T22:53:56.850Z,99.90
2018-08-11T22:56:27.377Z,99.90
2018-08-11T22:58:57.659Z,99.90
2018-08-11T23:01:28.351Z,99.90
2018-08-11T23:03:58.903Z,99.90
2018-08-11T23:06:29.677Z,99.90
2018-08-11T23:09:00.293Z,99.90
2018-08-11T23:11:30.773Z,99.90
2018-08-11T23:14:01.122Z,99.90
2018-08-11T23:16:31.774Z,99.90
2018-08-11T23:19:02.331Z,99.90
2018-08-11T23:21:32.927Z,99.90
2018-08-11T23:24:03.370Z,99.90
2018-08-11T23:26:34.037Z,99.90
2018-08-11T23:29:04.430Z,99.90
2018-08-11T23:31:34.953Z,99.90
2018-08-11T23:34:05.360Z,99.90
2018-08-11T23:36:35.839Z,99.90
2018-08-11T23:39:08.599Z,99.90
2018-08-11T23:41:39.310Z,99.90
2018-08-11T23:44:09.834Z,99.90
2018-08-11T23:46:40.400Z,99.90
2018-08-11T23:49:11.024Z,99.90
2018-08-11T23:51:41.510Z,99.90
2018-08-11T23:54:11.875Z,99.90
2018-08-11T23:56:42.263Z,99.90
2018-08-11T23:59:12.793Z,99.90
